sensor_id;sensor_type;location;lat;lon;timestamp;P1;durP1;ratioP1;P2;durP2;ratioP2
5833;SDS011;2943;48.012;10.968;2023-07-13T00:01:34;7.27;;;5.90;;
5833;SDS011;2943;48.012;10.968;2023-07-13T00:04:03;6.20;;;5.40;;
5833;SDS011;2943;48.012;10.968;2023-07-13T00:06:30;9.30;;;5.90;;
5833;SDS011;2943;48.012;10.968;2023-07-13T00:08:57;6.10;;;5.47;;
5833;SDS011;2943;48.012;10.968;2023-07-13T00:11:26;5.43;;;4.80;;
5833;SDS011;2943;48.012;10.968;2023-07-13T00:13:53;11.23;;;5.20;;
5833;SDS011;2943;48.012;10.968;2023-07-13T00:16:20;7.80;;;5.20;;
5833;SDS011;2943;48.012;10.968;2023-07-13T00:18:47;6.93;;;4.87;;
5833;SDS011;2943;48.012;10.968;2023-07-13T00:21:14;8.53;;;4.80;;
5833;SDS011;2943;48.012;10.968;2023-07-13T00:23:41;7.03;;;4.87;;
5833;SDS011;2943;48.012;10.968;2023-07-13T00:26:09;8.57;;;4.90;;
5833;SDS011;2943;48.012;10.968;2023-07-13T00:28:38;6.17;;;5.40;;
5833;SDS011;2943;48.012;10.968;2023-07-13T00:31:07;5.90;;;4.70;;
5833;SDS011;2943;48.012;10.968;2023-07-13T00:33:34;5.40;;;4.87;;
5833;SDS011;2943;48.012;10.968;2023-07-13T00:36:01;6.00;;;5.40;;
5833;SDS011;2943;48.012;10.968;2023-07-13T00:38:28;6.43;;;5.83;;
5833;SDS011;2943;48.012;10.968;2023-07-13T00:40:55;9.27;;;5.20;;
5833;SDS011;2943;48.012;10.968;2023-07-13T00:43:23;8.17;;;5.57;;
5833;SDS011;2943;48.012;10.968;2023-07-13T00:46:14;8.43;;;4.90;;
5833;SDS011;2943;48.012;10.968;2023-07-13T00:48:43;6.63;;;5.53;;
5833;SDS011;2943;48.012;10.968;2023-07-13T00:51:12;9.13;;;4.23;;
5833;SDS011;2943;48.012;10.968;2023-07-13T00:53:40;12.67;;;5.07;;
5833;SDS011;2943;48.012;10.968;2023-07-13T00:56:06;7.80;;;5.07;;
5833;SDS011;2943;48.012;10.968;2023-07-13T00:58:34;11.27;;;4.80;;
5833;SDS011;2943;48.012;10.968;2023-07-13T01:01:01;9.10;;;5.43;;
5833;SDS011;2943;48.012;10.968;2023-07-13T01:03:29;8.70;;;5.50;;
5833;SDS011;2943;48.012;10.968;2023-07-13T01:05:57;7.03;;;5.60;;
5833;SDS011;2943;48.012;10.968;2023-07-13T01:08:24;9.20;;;5.73;;
5833;SDS011;2943;48.012;10.968;2023-07-13T01:10:51;8.37;;;5.13;;
5833;SDS011;2943;48.012;10.968;2023-07-13T01:13:19;6.60;;;5.40;;
5833;SDS011;2943;48.012;10.968;2023-07-13T01:15:46;7.30;;;5.03;;
5833;SDS011;2943;48.012;10.968;2023-07-13T01:18:16;5.63;;;4.37;;
5833;SDS011;2943;48.012;10.968;2023-07-13T01:20:55;7.47;;;5.50;;
5833;SDS011;2943;48.012;10.968;2023-07-13T01:23:24;6.43;;;4.90;;
5833;SDS011;2943;48.012;10.968;2023-07-13T01:25:52;8.50;;;4.63;;
5833;SDS011;2943;48.012;10.968;2023-07-13T01:28:20;5.80;;;5.07;;
5833;SDS011;2943;48.012;10.968;2023-07-13T01:30:48;8.93;;;5.70;;
5833;SDS011;2943;48.012;10.968;2023-07-13T01:33:16;7.57;;;4.30;;
5833;SDS011;2943;48.012;10.968;2023-07-13T01:35:44;8.60;;;4.67;;
5833;SDS011;2943;48.012;10.968;2023-07-13T01:38:13;5.23;;;4.73;;
5833;SDS011;2943;48.012;10.968;2023-07-13T01:40:42;5.37;;;4.87;;
5833;SDS011;2943;48.012;10.968;2023-07-13T01:43:10;9.83;;;5.47;;
5833;SDS011;2943;48.012;10.968;2023-07-13T01:45:37;7.23;;;5.57;;
5833;SDS011;2943;48.012;10.968;2023-07-13T01:48:04;7.33;;;6.13;;
5833;SDS011;2943;48.012;10.968;2023-07-13T01:50:31;10.30;;;5.50;;
5833;SDS011;2943;48.012;10.968;2023-07-13T01:52:58;14.27;;;5.50;;
5833;SDS011;2943;48.012;10.968;2023-07-13T01:55:27;8.90;;;6.07;;
5833;SDS011;2943;48.012;10.968;2023-07-13T01:57:54;7.57;;;6.20;;
5833;SDS011;2943;48.012;10.968;2023-07-13T02:00:21;8.50;;;5.60;;
5833;SDS011;2943;48.012;10.968;2023-07-13T02:02:47;8.80;;;6.00;;
5833;SDS011;2943;48.012;10.968;2023-07-13T02:05:15;14.93;;;5.43;;
5833;SDS011;2943;48.012;10.968;2023-07-13T02:07:42;11.30;;;5.30;;
5833;SDS011;2943;48.012;10.968;2023-07-13T02:10:09;11.47;;;6.00;;
5833;SDS011;2943;48.012;10.968;2023-07-13T02:12:38;14.83;;;5.80;;
5833;SDS011;2943;48.012;10.968;2023-07-13T02:15:08;7.83;;;6.67;;
5833;SDS011;2943;48.012;10.968;2023-07-13T02:17:36;11.90;;;5.90;;
5833;SDS011;2943;48.012;10.968;2023-07-13T02:20:03;18.37;;;6.63;;
5833;SDS011;2943;48.012;10.968;2023-07-13T02:22:31;21.00;;;7.20;;
5833;SDS011;2943;48.012;10.968;2023-07-13T02:24:58;11.60;;;7.07;;
5833;SDS011;2943;48.012;10.968;2023-07-13T02:27:25;6.80;;;5.67;;
5833;SDS011;2943;48.012;10.968;2023-07-13T02:29:53;5.97;;;4.73;;
5833;SDS011;2943;48.012;10.968;2023-07-13T02:32:20;5.20;;;3.93;;
5833;SDS011;2943;48.012;10.968;2023-07-13T02:34:46;7.00;;;4.13;;
5833;SDS011;2943;48.012;10.968;2023-07-13T02:37:13;4.20;;;2.83;;
5833;SDS011;2943;48.012;10.968;2023-07-13T02:39:40;6.70;;;3.90;;
5833;SDS011;2943;48.012;10.968;2023-07-13T02:42:07;4.00;;;3.53;;
5833;SDS011;2943;48.012;10.968;2023-07-13T02:44:34;6.40;;;3.00;;
5833;SDS011;2943;48.012;10.968;2023-07-13T02:47:02;6.83;;;3.50;;
5833;SDS011;2943;48.012;10.968;2023-07-13T02:49:29;6.20;;;4.03;;
5833;SDS011;2943;48.012;10.968;2023-07-13T02:51:56;3.93;;;2.93;;
5833;SDS011;2943;48.012;10.968;2023-07-13T02:54:23;3.63;;;3.33;;
5833;SDS011;2943;48.012;10.968;2023-07-13T02:56:50;4.03;;;3.13;;
5833;SDS011;2943;48.012;10.968;2023-07-13T02:59:17;4.23;;;3.20;;
5833;SDS011;2943;48.012;10.968;2023-07-13T03:01:43;4.10;;;3.30;;
5833;SDS011;2943;48.012;10.968;2023-07-13T03:04:12;3.43;;;3.13;;
5833;SDS011;2943;48.012;10.968;2023-07-13T03:06:39;6.17;;;3.30;;
5833;SDS011;2943;48.012;10.968;2023-07-13T03:09:05;13.17;;;5.07;;
5833;SDS011;2943;48.012;10.968;2023-07-13T03:11:33;7.60;;;4.00;;
5833;SDS011;2943;48.012;10.968;2023-07-13T03:13:59;5.10;;;3.80;;
5833;SDS011;2943;48.012;10.968;2023-07-13T03:16:26;5.27;;;3.67;;
5833;SDS011;2943;48.012;10.968;2023-07-13T03:18:53;4.97;;;3.80;;
5833;SDS011;2943;48.012;10.968;2023-07-13T03:21:22;4.67;;;3.47;;
5833;SDS011;2943;48.012;10.968;2023-07-13T03:23:48;4.60;;;3.50;;
5833;SDS011;2943;48.012;10.968;2023-07-13T03:26:16;6.27;;;3.87;;
5833;SDS011;2943;48.012;10.968;2023-07-13T03:28:44;5.00;;;4.00;;
5833;SDS011;2943;48.012;10.968;2023-07-13T03:31:12;3.87;;;3.37;;
5833;SDS011;2943;48.012;10.968;2023-07-13T03:33:44;6.30;;;3.27;;
5833;SDS011;2943;48.012;10.968;2023-07-13T03:36:11;3.67;;;3.20;;
5833;SDS011;2943;48.012;10.968;2023-07-13T03:38:42;7.87;;;3.57;;
5833;SDS011;2943;48.012;10.968;2023-07-13T03:41:09;5.47;;;3.30;;
5833;SDS011;2943;48.012;10.968;2023-07-13T03:43:36;5.53;;;3.33;;
5833;SDS011;2943;48.012;10.968;2023-07-13T03:46:02;4.00;;;3.30;;
5833;SDS011;2943;48.012;10.968;2023-07-13T03:48:29;6.40;;;3.60;;
5833;SDS011;2943;48.012;10.968;2023-07-13T03:50:56;4.40;;;3.87;;
5833;SDS011;2943;48.012;10.968;2023-07-13T03:53:23;4.30;;;3.80;;
5833;SDS011;2943;48.012;10.968;2023-07-13T03:55:51;10.73;;;4.53;;
5833;SDS011;2943;48.012;10.968;2023-07-13T03:58:28;8.53;;;4.40;;
5833;SDS011;2943;48.012;10.968;2023-07-13T04:00:57;5.03;;;4.00;;
5833;SDS011;2943;48.012;10.968;2023-07-13T04:03:25;7.13;;;4.80;;
5833;SDS011;2943;48.012;10.968;2023-07-13T04:05:52;4.40;;;4.00;;
5833;SDS011;2943;48.012;10.968;2023-07-13T04:08:19;5.70;;;4.40;;
5833;SDS011;2943;48.012;10.968;2023-07-13T04:10:46;7.67;;;5.13;;
5833;SDS011;2943;48.012;10.968;2023-07-13T04:13:14;6.90;;;5.83;;
5833;SDS011;2943;48.012;10.968;2023-07-13T04:15:41;9.40;;;5.20;;
5833;SDS011;2943;48.012;10.968;2023-07-13T04:18:08;7.23;;;6.00;;
5833;SDS011;2943;48.012;10.968;2023-07-13T04:20:35;13.30;;;5.70;;
5833;SDS011;2943;48.012;10.968;2023-07-13T04:23:01;13.00;;;7.10;;
5833;SDS011;2943;48.012;10.968;2023-07-13T04:25:28;14.33;;;6.03;;
5833;SDS011;2943;48.012;10.968;2023-07-13T04:27:55;9.27;;;6.97;;
5833;SDS011;2943;48.012;10.968;2023-07-13T04:30:23;8.93;;;5.63;;
5833;SDS011;2943;48.012;10.968;2023-07-13T04:32:50;9.70;;;6.90;;
5833;SDS011;2943;48.012;10.968;2023-07-13T04:35:18;10.17;;;6.80;;
5833;SDS011;2943;48.012;10.968;2023-07-13T04:37:46;7.50;;;6.33;;
5833;SDS011;2943;48.012;10.968;2023-07-13T04:40:15;8.43;;;6.20;;
5833;SDS011;2943;48.012;10.968;2023-07-13T04:42:42;10.37;;;6.80;;
5833;SDS011;2943;48.012;10.968;2023-07-13T04:45:09;9.30;;;7.27;;
5833;SDS011;2943;48.012;10.968;2023-07-13T04:47:37;9.13;;;6.67;;
5833;SDS011;2943;48.012;10.968;2023-07-13T04:50:04;8.53;;;7.50;;
5833;SDS011;2943;48.012;10.968;2023-07-13T04:52:32;12.47;;;7.13;;
5833;SDS011;2943;48.012;10.968;2023-07-13T04:54:59;7.67;;;6.50;;
5833;SDS011;2943;48.012;10.968;2023-07-13T04:57:26;12.60;;;7.27;;
5833;SDS011;2943;48.012;10.968;2023-07-13T04:59:54;8.93;;;5.93;;
5833;SDS011;2943;48.012;10.968;2023-07-13T05:02:21;9.77;;;6.80;;
5833;SDS011;2943;48.012;10.968;2023-07-13T05:04:49;8.57;;;7.33;;
5833;SDS011;2943;48.012;10.968;2023-07-13T05:07:16;11.23;;;6.83;;
5833;SDS011;2943;48.012;10.968;2023-07-13T05:09:43;9.53;;;6.07;;
5833;SDS011;2943;48.012;10.968;2023-07-13T05:12:10;6.60;;;5.43;;
5833;SDS011;2943;48.012;10.968;2023-07-13T05:14:37;7.40;;;6.00;;
5833;SDS011;2943;48.012;10.968;2023-07-13T05:17:04;8.57;;;6.33;;
5833;SDS011;2943;48.012;10.968;2023-07-13T05:19:30;7.97;;;6.10;;
5833;SDS011;2943;48.012;10.968;2023-07-13T05:21:59;6.67;;;5.80;;
5833;SDS011;2943;48.012;10.968;2023-07-13T05:24:25;10.20;;;5.80;;
5833;SDS011;2943;48.012;10.968;2023-07-13T05:26:52;7.47;;;6.33;;
5833;SDS011;2943;48.012;10.968;2023-07-13T05:29:19;14.73;;;5.90;;
5833;SDS011;2943;48.012;10.968;2023-07-13T05:31:46;10.13;;;6.30;;
5833;SDS011;2943;48.012;10.968;2023-07-13T05:34:13;8.80;;;6.60;;
5833;SDS011;2943;48.012;10.968;2023-07-13T05:36:40;11.10;;;6.30;;
5833;SDS011;2943;48.012;10.968;2023-07-13T05:39:08;17.17;;;6.73;;
5833;SDS011;2943;48.012;10.968;2023-07-13T05:41:36;7.73;;;6.87;;
5833;SDS011;2943;48.012;10.968;2023-07-13T05:44:03;8.50;;;7.00;;
5833;SDS011;2943;48.012;10.968;2023-07-13T05:46:30;9.63;;;6.23;;
5833;SDS011;2943;48.012;10.968;2023-07-13T05:48:57;10.73;;;6.30;;
5833;SDS011;2943;48.012;10.968;2023-07-13T05:51:24;7.60;;;5.70;;
5833;SDS011;2943;48.012;10.968;2023-07-13T05:53:51;5.60;;;5.07;;
5833;SDS011;2943;48.012;10.968;2023-07-13T05:56:19;9.47;;;6.20;;
5833;SDS011;2943;48.012;10.968;2023-07-13T05:58:47;12.70;;;5.40;;
5833;SDS011;2943;48.012;10.968;2023-07-13T06:01:14;5.82;;;4.38;;
5833;SDS011;2943;48.012;10.968;2023-07-13T06:03:42;5.93;;;4.30;;
5833;SDS011;2943;48.012;10.968;2023-07-13T06:06:09;6.13;;;4.37;;
5833;SDS011;2943;48.012;10.968;2023-07-13T06:08:36;4.53;;;3.93;;
5833;SDS011;2943;48.012;10.968;2023-07-13T06:11:04;5.30;;;3.63;;
5833;SDS011;2943;48.012;10.968;2023-07-13T06:13:32;10.50;;;3.73;;
5833;SDS011;2943;48.012;10.968;2023-07-13T06:15:59;3.73;;;3.33;;
5833;SDS011;2943;48.012;10.968;2023-07-13T06:18:29;4.40;;;3.23;;
5833;SDS011;2943;48.012;10.968;2023-07-13T06:20:56;6.60;;;4.33;;
5833;SDS011;2943;48.012;10.968;2023-07-13T06:23:23;4.30;;;3.90;;
5833;SDS011;2943;48.012;10.968;2023-07-13T06:25:50;6.23;;;3.90;;
5833;SDS011;2943;48.012;10.968;2023-07-13T06:28:16;7.80;;;3.77;;
5833;SDS011;2943;48.012;10.968;2023-07-13T06:30:45;9.63;;;3.43;;
5833;SDS011;2943;48.012;10.968;2023-07-13T06:33:11;3.10;;;2.83;;
5833;SDS011;2943;48.012;10.968;2023-07-13T06:35:38;6.70;;;3.40;;
5833;SDS011;2943;48.012;10.968;2023-07-13T06:38:05;5.20;;;3.20;;
5833;SDS011;2943;48.012;10.968;2023-07-13T06:40:32;4.93;;;3.07;;
5833;SDS011;2943;48.012;10.968;2023-07-13T06:42:59;6.10;;;3.10;;
5833;SDS011;2943;48.012;10.968;2023-07-13T06:45:26;7.90;;;3.33;;
5833;SDS011;2943;48.012;10.968;2023-07-13T06:47:54;2.83;;;2.63;;
5833;SDS011;2943;48.012;10.968;2023-07-13T06:50:21;4.27;;;2.50;;
5833;SDS011;2943;48.012;10.968;2023-07-13T06:52:48;3.00;;;2.67;;
5833;SDS011;2943;48.012;10.968;2023-07-13T06:55:15;3.10;;;2.80;;
5833;SDS011;2943;48.012;10.968;2023-07-13T06:57:42;4.73;;;3.23;;
5833;SDS011;2943;48.012;10.968;2023-07-13T07:00:10;3.93;;;2.80;;
5833;SDS011;2943;48.012;10.968;2023-07-13T07:02:42;5.83;;;3.73;;
5833;SDS011;2943;48.012;10.968;2023-07-13T07:05:10;7.10;;;3.53;;
5833;SDS011;2943;48.012;10.968;2023-07-13T07:07:38;5.37;;;3.40;;
5833;SDS011;2943;48.012;10.968;2023-07-13T07:10:06;5.30;;;3.40;;
5833;SDS011;2943;48.012;10.968;2023-07-13T07:12:33;5.70;;;3.50;;
5833;SDS011;2943;48.012;10.968;2023-07-13T07:15:00;5.53;;;3.63;;
5833;SDS011;2943;48.012;10.968;2023-07-13T07:17:27;7.50;;;4.53;;
5833;SDS011;2943;48.012;10.968;2023-07-13T07:19:54;4.23;;;3.37;;
5833;SDS011;2943;48.012;10.968;2023-07-13T07:22:22;9.20;;;4.73;;
5833;SDS011;2943;48.012;10.968;2023-07-13T07:24:52;7.27;;;3.67;;
5833;SDS011;2943;48.012;10.968;2023-07-13T07:27:18;3.63;;;3.17;;
5833;SDS011;2943;48.012;10.968;2023-07-13T07:29:46;8.30;;;3.70;;
5833;SDS011;2943;48.012;10.968;2023-07-13T07:32:13;5.17;;;3.43;;
5833;SDS011;2943;48.012;10.968;2023-07-13T07:34:39;6.93;;;4.50;;
5833;SDS011;2943;48.012;10.968;2023-07-13T07:37:06;5.37;;;3.60;;
5833;SDS011;2943;48.012;10.968;2023-07-13T07:39:38;6.17;;;3.17;;
5833;SDS011;2943;48.012;10.968;2023-07-13T07:42:05;4.77;;;2.93;;
5833;SDS011;2943;48.012;10.968;2023-07-13T07:44:33;6.37;;;3.43;;
5833;SDS011;2943;48.012;10.968;2023-07-13T07:47:00;5.13;;;2.90;;
5833;SDS011;2943;48.012;10.968;2023-07-13T07:49:27;4.57;;;3.17;;
5833;SDS011;2943;48.012;10.968;2023-07-13T07:51:54;7.13;;;3.73;;
5833;SDS011;2943;48.012;10.968;2023-07-13T07:54:21;6.30;;;3.67;;
5833;SDS011;2943;48.012;10.968;2023-07-13T07:56:49;3.83;;;3.40;;
5833;SDS011;2943;48.012;10.968;2023-07-13T07:59:16;5.50;;;3.40;;
5833;SDS011;2943;48.012;10.968;2023-07-13T08:01:42;5.07;;;3.40;;
5833;SDS011;2943;48.012;10.968;2023-07-13T08:04:11;4.60;;;3.63;;
5833;SDS011;2943;48.012;10.968;2023-07-13T08:06:38;4.93;;;3.13;;
5833;SDS011;2943;48.012;10.968;2023-07-13T08:09:04;4.93;;;3.77;;
5833;SDS011;2943;48.012;10.968;2023-07-13T08:11:33;3.33;;;2.60;;
5833;SDS011;2943;48.012;10.968;2023-07-13T08:14:01;3.03;;;2.80;;
5833;SDS011;2943;48.012;10.968;2023-07-13T08:16:28;3.87;;;3.10;;
5833;SDS011;2943;48.012;10.968;2023-07-13T08:18:57;6.13;;;3.30;;
5833;SDS011;2943;48.012;10.968;2023-07-13T08:21:24;3.40;;;2.90;;
5833;SDS011;2943;48.012;10.968;2023-07-13T08:23:51;5.20;;;3.13;;
5833;SDS011;2943;48.012;10.968;2023-07-13T08:26:18;4.67;;;3.27;;
5833;SDS011;2943;48.012;10.968;2023-07-13T08:28:46;8.00;;;3.30;;
5833;SDS011;2943;48.012;10.968;2023-07-13T08:31:15;3.47;;;2.80;;
5833;SDS011;2943;48.012;10.968;2023-07-13T08:33:43;5.77;;;2.97;;
5833;SDS011;2943;48.012;10.968;2023-07-13T08:36:12;3.57;;;3.27;;
5833;SDS011;2943;48.012;10.968;2023-07-13T08:38:42;5.60;;;2.60;;
5833;SDS011;2943;48.012;10.968;2023-07-13T08:41:10;4.80;;;3.33;;
5833;SDS011;2943;48.012;10.968;2023-07-13T08:43:39;5.77;;;3.30;;
5833;SDS011;2943;48.012;10.968;2023-07-13T08:46:12;4.20;;;3.13;;
5833;SDS011;2943;48.012;10.968;2023-07-13T08:48:45;4.93;;;2.97;;
5833;SDS011;2943;48.012;10.968;2023-07-13T08:51:20;5.40;;;3.33;;
5833;SDS011;2943;48.012;10.968;2023-07-13T08:53:58;5.33;;;3.47;;
5833;SDS011;2943;48.012;10.968;2023-07-13T08:56:29;4.07;;;3.57;;
5833;SDS011;2943;48.012;10.968;2023-07-13T08:58:58;5.60;;;3.40;;
5833;SDS011;2943;48.012;10.968;2023-07-13T09:01:33;4.00;;;3.40;;
5833;SDS011;2943;48.012;10.968;2023-07-13T09:04:17;6.73;;;3.17;;
5833;SDS011;2943;48.012;10.968;2023-07-13T09:06:49;4.73;;;2.87;;
5833;SDS011;2943;48.012;10.968;2023-07-13T09:09:26;4.00;;;2.80;;
5833;SDS011;2943;48.012;10.968;2023-07-13T09:12:07;4.10;;;2.67;;
5833;SDS011;2943;48.012;10.968;2023-07-13T09:14:42;4.17;;;3.07;;
5833;SDS011;2943;48.012;10.968;2023-07-13T09:17:14;6.67;;;2.93;;
5833;SDS011;2943;48.012;10.968;2023-07-13T09:19:48;2.60;;;2.40;;
5833;SDS011;2943;48.012;10.968;2023-07-13T09:22:29;4.97;;;2.90;;
5833;SDS011;2943;48.012;10.968;2023-07-13T09:25:02;3.83;;;2.70;;
5833;SDS011;2943;48.012;10.968;2023-07-13T09:27:33;4.50;;;3.00;;
5833;SDS011;2943;48.012;10.968;2023-07-13T09:30:17;4.20;;;2.70;;
5833;SDS011;2943;48.012;10.968;2023-07-13T09:32:52;4.33;;;2.50;;
5833;SDS011;2943;48.012;10.968;2023-07-13T09:35:22;3.20;;;2.90;;
5833;SDS011;2943;48.012;10.968;2023-07-13T09:37:56;6.77;;;2.80;;
5833;SDS011;2943;48.012;10.968;2023-07-13T09:40:27;6.60;;;2.53;;
5833;SDS011;2943;48.012;10.968;2023-07-13T09:43:03;3.63;;;2.47;;
5833;SDS011;2943;48.012;10.968;2023-07-13T09:45:33;4.57;;;2.67;;
5833;SDS011;2943;48.012;10.968;2023-07-13T09:48:06;9.23;;;3.10;;
5833;SDS011;2943;48.012;10.968;2023-07-13T09:50:37;4.30;;;2.80;;
5833;SDS011;2943;48.012;10.968;2023-07-13T09:53:11;3.87;;;2.80;;
5833;SDS011;2943;48.012;10.968;2023-07-13T09:55:44;3.53;;;2.70;;
5833;SDS011;2943;48.012;10.968;2023-07-13T09:58:12;4.10;;;2.40;;
5833;SDS011;2943;48.012;10.968;2023-07-13T10:00:54;4.20;;;2.33;;
5833;SDS011;2943;48.012;10.968;2023-07-13T10:03:25;5.20;;;3.20;;
5833;SDS011;2943;48.012;10.968;2023-07-13T10:06:11;2.70;;;2.20;;
5833;SDS011;2943;48.012;10.968;2023-07-13T10:08:39;4.40;;;2.40;;
5833;SDS011;2943;48.012;10.968;2023-07-13T10:11:17;4.70;;;2.27;;
5833;SDS011;2943;48.012;10.968;2023-07-13T10:13:46;2.40;;;2.13;;
5833;SDS011;2943;48.012;10.968;2023-07-13T10:16:17;7.20;;;2.47;;
5833;SDS011;2943;48.012;10.968;2023-07-13T10:18:49;5.43;;;2.47;;
5833;SDS011;2943;48.012;10.968;2023-07-13T10:21:22;4.23;;;2.70;;
5833;SDS011;2943;48.012;10.968;2023-07-13T10:23:55;2.40;;;2.17;;
5833;SDS011;2943;48.012;10.968;2023-07-13T10:26:42;5.03;;;2.33;;
5833;SDS011;2943;48.012;10.968;2023-07-13T10:29:14;4.67;;;2.50;;
5833;SDS011;2943;48.012;10.968;2023-07-13T10:31:44;9.77;;;2.73;;
5833;SDS011;2943;48.012;10.968;2023-07-13T10:34:13;3.73;;;2.30;;
5833;SDS011;2943;48.012;10.968;2023-07-13T10:36:40;3.73;;;2.37;;
5833;SDS011;2943;48.012;10.968;2023-07-13T10:39:13;3.07;;;2.37;;
5833;SDS011;2943;48.012;10.968;2023-07-13T10:41:44;11.53;;;2.83;;
5833;SDS011;2943;48.012;10.968;2023-07-13T10:44:17;4.47;;;2.60;;
5833;SDS011;2943;48.012;10.968;2023-07-13T10:46:51;5.27;;;2.53;;
5833;SDS011;2943;48.012;10.968;2023-07-13T10:49:21;5.03;;;2.43;;
5833;SDS011;2943;48.012;10.968;2023-07-13T10:51:49;5.80;;;2.40;;
5833;SDS011;2943;48.012;10.968;2023-07-13T10:54:18;7.90;;;2.53;;
5833;SDS011;2943;48.012;10.968;2023-07-13T10:56:49;7.17;;;2.70;;
5833;SDS011;2943;48.012;10.968;2023-07-13T10:59:23;3.97;;;2.63;;
5833;SDS011;2943;48.012;10.968;2023-07-13T11:01:55;5.17;;;3.13;;
5833;SDS011;2943;48.012;10.968;2023-07-13T11:04:27;3.00;;;2.53;;
5833;SDS011;2943;48.012;10.968;2023-07-13T11:07:09;6.63;;;2.70;;
5833;SDS011;2943;48.012;10.968;2023-07-13T11:09:43;3.20;;;2.70;;
5833;SDS011;2943;48.012;10.968;2023-07-13T11:12:26;8.03;;;2.67;;
5833;SDS011;2943;48.012;10.968;2023-07-13T11:15:15;4.00;;;3.00;;
5833;SDS011;2943;48.012;10.968;2023-07-13T11:17:56;6.70;;;2.80;;
5833;SDS011;2943;48.012;10.968;2023-07-13T11:20:34;8.07;;;2.70;;
5833;SDS011;2943;48.012;10.968;2023-07-13T11:23:08;5.23;;;2.77;;
5833;SDS011;2943;48.012;10.968;2023-07-13T11:25:46;6.20;;;2.90;;
5833;SDS011;2943;48.012;10.968;2023-07-13T11:28:18;5.83;;;2.93;;
5833;SDS011;2943;48.012;10.968;2023-07-13T11:31:03;7.73;;;2.57;;
5833;SDS011;2943;48.012;10.968;2023-07-13T11:33:55;9.23;;;2.70;;
5833;SDS011;2943;48.012;10.968;2023-07-13T11:36:28;5.33;;;2.77;;
5833;SDS011;2943;48.012;10.968;2023-07-13T11:38:59;5.80;;;2.67;;
5833;SDS011;2943;48.012;10.968;2023-07-13T11:41:30;4.10;;;3.00;;
5833;SDS011;2943;48.012;10.968;2023-07-13T11:44:11;4.40;;;3.40;;
5833;SDS011;2943;48.012;10.968;2023-07-13T11:46:44;4.40;;;2.97;;
5833;SDS011;2943;48.012;10.968;2023-07-13T11:49:13;3.57;;;2.50;;
5833;SDS011;2943;48.012;10.968;2023-07-13T11:51:43;4.83;;;2.80;;
5833;SDS011;2943;48.012;10.968;2023-07-13T11:54:15;8.67;;;2.90;;
5833;SDS011;2943;48.012;10.968;2023-07-13T11:56:48;4.20;;;2.40;;
5833;SDS011;2943;48.012;10.968;2023-07-13T11:59:15;4.47;;;2.70;;
5833;SDS011;2943;48.012;10.968;2023-07-13T12:01:44;6.00;;;2.40;;
5833;SDS011;2943;48.012;10.968;2023-07-13T12:04:20;7.80;;;2.90;;
5833;SDS011;2943;48.012;10.968;2023-07-13T12:06:56;2.70;;;2.40;;
5833;SDS011;2943;48.012;10.968;2023-07-13T12:09:26;3.60;;;2.80;;
5833;SDS011;2943;48.012;10.968;2023-07-13T12:11:54;5.90;;;2.70;;
5833;SDS011;2943;48.012;10.968;2023-07-13T12:14:23;5.03;;;2.40;;
5833;SDS011;2943;48.012;10.968;2023-07-13T12:16:51;7.10;;;2.40;;
5833;SDS011;2943;48.012;10.968;2023-07-13T12:19:28;5.67;;;3.03;;
5833;SDS011;2943;48.012;10.968;2023-07-13T12:22:04;3.30;;;2.30;;
5833;SDS011;2943;48.012;10.968;2023-07-13T12:24:39;6.50;;;2.87;;
5833;SDS011;2943;48.012;10.968;2023-07-13T12:27:13;3.07;;;2.77;;
5833;SDS011;2943;48.012;10.968;2023-07-13T12:29:50;3.13;;;2.40;;
5833;SDS011;2943;48.012;10.968;2023-07-13T12:32:24;4.17;;;2.43;;
5833;SDS011;2943;48.012;10.968;2023-07-13T12:34:54;5.43;;;2.53;;
5833;SDS011;2943;48.012;10.968;2023-07-13T12:37:24;3.80;;;2.60;;
5833;SDS011;2943;48.012;10.968;2023-07-13T12:39:53;4.63;;;2.40;;
5833;SDS011;2943;48.012;10.968;2023-07-13T12:42:23;2.80;;;2.43;;
5833;SDS011;2943;48.012;10.968;2023-07-13T12:44:55;5.20;;;2.40;;
5833;SDS011;2943;48.012;10.968;2023-07-13T12:47:27;4.80;;;1.97;;
5833;SDS011;2943;48.012;10.968;2023-07-13T12:49:55;3.97;;;2.50;;
5833;SDS011;2943;48.012;10.968;2023-07-13T12:52:38;4.40;;;2.37;;
5833;SDS011;2943;48.012;10.968;2023-07-13T12:55:10;4.20;;;2.80;;
5833;SDS011;2943;48.012;10.968;2023-07-13T12:57:44;8.33;;;2.40;;
5833;SDS011;2943;48.012;10.968;2023-07-13T13:00:20;3.77;;;2.37;;
5833;SDS011;2943;48.012;10.968;2023-07-13T13:02:55;3.37;;;2.40;;
5833;SDS011;2943;48.012;10.968;2023-07-13T13:05:26;11.83;;;3.33;;
5833;SDS011;2943;48.012;10.968;2023-07-13T13:07:54;4.17;;;2.60;;
5833;SDS011;2943;48.012;10.968;2023-07-13T13:10:22;4.10;;;2.97;;
5833;SDS011;2943;48.012;10.968;2023-07-13T13:12:50;6.70;;;2.87;;
5833;SDS011;2943;48.012;10.968;2023-07-13T13:15:17;2.60;;;2.40;;
5833;SDS011;2943;48.012;10.968;2023-07-13T13:17:46;2.07;;;1.87;;
5833;SDS011;2943;48.012;10.968;2023-07-13T13:20:14;7.47;;;2.67;;
5833;SDS011;2943;48.012;10.968;2023-07-13T13:22:42;9.63;;;2.83;;
5833;SDS011;2943;48.012;10.968;2023-07-13T13:25:11;4.97;;;2.60;;
5833;SDS011;2943;48.012;10.968;2023-07-13T13:27:38;4.67;;;3.00;;
5833;SDS011;2943;48.012;10.968;2023-07-13T13:30:09;2.80;;;2.50;;
5833;SDS011;2943;48.012;10.968;2023-07-13T13:32:38;4.40;;;2.83;;
5833;SDS011;2943;48.012;10.968;2023-07-13T13:35:07;5.73;;;2.17;;
5833;SDS011;2943;48.012;10.968;2023-07-13T13:37:39;5.60;;;2.47;;
5833;SDS011;2943;48.012;10.968;2023-07-13T13:40:14;3.90;;;2.80;;
5833;SDS011;2943;48.012;10.968;2023-07-13T13:42:43;7.50;;;2.40;;
5833;SDS011;2943;48.012;10.968;2023-07-13T13:45:10;4.70;;;2.10;;
5833;SDS011;2943;48.012;10.968;2023-07-13T13:47:38;7.70;;;2.63;;
5833;SDS011;2943;48.012;10.968;2023-07-13T13:50:11;2.47;;;2.10;;
5833;SDS011;2943;48.012;10.968;2023-07-13T13:52:40;2.80;;;2.50;;
5833;SDS011;2943;48.012;10.968;2023-07-13T13:55:11;2.60;;;2.40;;
5833;SDS011;2943;48.012;10.968;2023-07-13T13:57:40;4.73;;;2.80;;
5833;SDS011;2943;48.012;10.968;2023-07-13T14:00:08;6.63;;;2.37;;
5833;SDS011;2943;48.012;10.968;2023-07-13T14:02:39;2.40;;;2.20;;
5833;SDS011;2943;48.012;10.968;2023-07-13T14:05:12;5.40;;;2.50;;
5833;SDS011;2943;48.012;10.968;2023-07-13T14:07:40;3.93;;;2.37;;
5833;SDS011;2943;48.012;10.968;2023-07-13T14:10:10;3.17;;;2.50;;
5833;SDS011;2943;48.012;10.968;2023-07-13T14:12:41;4.83;;;2.40;;
5833;SDS011;2943;48.012;10.968;2023-07-13T14:15:13;4.53;;;2.80;;
5833;SDS011;2943;48.012;10.968;2023-07-13T14:17:44;3.77;;;2.73;;
5833;SDS011;2943;48.012;10.968;2023-07-13T14:20:14;2.87;;;2.50;;
5833;SDS011;2943;48.012;10.968;2023-07-13T14:22:41;6.27;;;2.83;;
5833;SDS011;2943;48.012;10.968;2023-07-13T14:25:10;5.50;;;2.43;;
5833;SDS011;2943;48.012;10.968;2023-07-13T14:27:37;3.53;;;2.40;;
5833;SDS011;2943;48.012;10.968;2023-07-13T14:30:07;2.87;;;2.63;;
5833;SDS011;2943;48.012;10.968;2023-07-13T14:32:39;4.40;;;2.60;;
5833;SDS011;2943;48.012;10.968;2023-07-13T14:35:06;5.40;;;2.70;;
5833;SDS011;2943;48.012;10.968;2023-07-13T14:37:35;4.63;;;2.50;;
5833;SDS011;2943;48.012;10.968;2023-07-13T14:40:04;3.07;;;2.60;;
5833;SDS011;2943;48.012;10.968;2023-07-13T14:42:38;2.87;;;2.60;;
5833;SDS011;2943;48.012;10.968;2023-07-13T14:45:09;3.27;;;2.30;;
5833;SDS011;2943;48.012;10.968;2023-07-13T14:47:39;7.43;;;2.50;;
5833;SDS011;2943;48.012;10.968;2023-07-13T14:50:11;3.23;;;2.47;;
5833;SDS011;2943;48.012;10.968;2023-07-13T14:52:40;8.10;;;2.53;;
5833;SDS011;2943;48.012;10.968;2023-07-13T14:55:09;6.33;;;2.50;;
5833;SDS011;2943;48.012;10.968;2023-07-13T14:57:37;3.83;;;2.40;;
5833;SDS011;2943;48.012;10.968;2023-07-13T15:00:07;4.23;;;2.50;;
5833;SDS011;2943;48.012;10.968;2023-07-13T15:02:40;4.22;;;2.10;;
5833;SDS011;2943;48.012;10.968;2023-07-13T15:05:12;7.63;;;3.53;;
5833;SDS011;2943;48.012;10.968;2023-07-13T15:07:41;4.80;;;2.60;;
5833;SDS011;2943;48.012;10.968;2023-07-13T15:10:14;9.77;;;2.53;;
5833;SDS011;2943;48.012;10.968;2023-07-13T15:12:43;3.73;;;2.27;;
5833;SDS011;2943;48.012;10.968;2023-07-13T15:15:12;5.63;;;2.43;;